<?xml version="1.0" encoding="UTF-8" standalone="no" ?>
<gpx xmlns="http://www.topografix.com/GPX/1/1" xmlns:xsi="http://www.w3.org/2001/XMLSchema-instance" xsi:schemaLocation="http://www.topografix.com/GPX/1/1 http://www.topografix.com/GPX/1/1/gpx.xsd" version="1.1" creator="VisuGPX - https://www.visugpx.com">
  <metadata>
    <name>CN Flainval 6.6km</name>
  </metadata>
  <trk>
    <name><![CDATA[2017-04-12T09:13:53Z]]></name>
    <extensions>
      <line xmlns="http://www.topografix.com/GPX/gpx_style/0/2">
        <color>0000FF</color>
        <width>4</width>
      </line>
    </extensions>
    <trkseg>
      <trkpt lat="48.6189" lon="6.39768">
        <ele>245</ele>
        <time>2025-11-10T08:14:09.000Z</time>
      </trkpt>
      <trkpt lat="48.61967" lon="6.39935">
        <ele>240</ele>
        <time>2025-11-10T08:15:05.813Z</time>
      </trkpt>
      <trkpt lat="48.62017" lon="6.39968">
        <ele>240</ele>
        <time>2025-11-10T08:15:31.562Z</time>
      </trkpt>
      <trkpt lat="48.62173" lon="6.39892">
        <ele>249</ele>
        <time>2025-11-10T08:17:03.710Z</time>
      </trkpt>
      <trkpt lat="48.62258" lon="6.39789">
        <ele>249</ele>
        <time>2025-11-10T08:17:55.115Z</time>
      </trkpt>
      <trkpt lat="48.6236" lon="6.39742">
        <ele>248</ele>
        <time>2025-11-10T08:18:44.019Z</time>
      </trkpt>
      <trkpt lat="48.62256" lon="6.39622">
        <ele>262</ele>
        <time>2025-11-10T08:20:11.851Z</time>
      </trkpt>
      <trkpt lat="48.62134" lon="6.39577">
        <ele>273</ele>
        <time>2025-11-10T08:21:30.665Z</time>
      </trkpt>
      <trkpt lat="48.61912" lon="6.39389">
        <ele>276</ele>
        <time>2025-11-10T08:23:35.224Z</time>
      </trkpt>
      <trkpt lat="48.61852" lon="6.39434">
        <ele>267</ele>
        <time>2025-11-10T08:24:02.883Z</time>
      </trkpt>
      <trkpt lat="48.6178" lon="6.39364">
        <ele>266</ele>
        <time>2025-11-10T08:24:41.865Z</time>
      </trkpt>
      <trkpt lat="48.61736" lon="6.39442">
        <ele>256</ele>
        <time>2025-11-10T08:25:09.861Z</time>
      </trkpt>
      <trkpt lat="48.61707" lon="6.39712">
        <ele>265</ele>
        <time>2025-11-10T08:26:49.831Z</time>
      </trkpt>
      <trkpt lat="48.61657" lon="6.39752">
        <ele>279</ele>
        <time>2025-11-10T08:27:54.746Z</time>
      </trkpt>
      <trkpt lat="48.61666" lon="6.39829">
        <ele>282</ele>
        <time>2025-11-10T08:28:24.113Z</time>
      </trkpt>
      <trkpt lat="48.61791" lon="6.40171">
        <ele>281</ele>
        <time>2025-11-10T08:30:24.612Z</time>
      </trkpt>
      <trkpt lat="48.61695" lon="6.40244">
        <ele>287</ele>
        <time>2025-11-10T08:31:25.211Z</time>
      </trkpt>
      <trkpt lat="48.61685" lon="6.40307">
        <ele>286</ele>
        <time>2025-11-10T08:31:44.045Z</time>
      </trkpt>
      <trkpt lat="48.61549" lon="6.40189">
        <ele>286</ele>
        <time>2025-11-10T08:32:58.049Z</time>
      </trkpt>
      <trkpt lat="48.61384" lon="6.40439">
        <ele>249</ele>
        <time>2025-11-10T08:34:34.504Z</time>
      </trkpt>
      <trkpt lat="48.61314" lon="6.40339">
        <ele>253</ele>
        <time>2025-11-10T08:35:26.325Z</time>
        <extensions>
          <visugpx:TrkExtension xmlns:visugpx="https://www.visugpx.com/editgpx/">
            <visugpx:node>1</visugpx:node>
            </visugpx:TrkExtension>
        </extensions>
      </trkpt>
      <trkpt lat="48.61315" lon="6.40338">
        <ele>253.1</ele>
        <time>2025-11-10T08:35:27.067Z</time>
      </trkpt>
      <trkpt lat="48.61269" lon="6.4027">
        <ele>254.3</ele>
        <time>2025-11-10T08:35:59.243Z</time>
      </trkpt>
      <trkpt lat="48.61228" lon="6.40215">
        <ele>257.7</ele>
        <time>2025-11-10T08:36:30.792Z</time>
      </trkpt>
      <trkpt lat="48.61224" lon="6.40209">
        <ele>258.4</ele>
        <time>2025-11-10T08:36:34.814Z</time>
      </trkpt>
      <trkpt lat="48.61222" lon="6.40202">
        <ele>259.2</ele>
        <time>2025-11-10T08:36:38.898Z</time>
      </trkpt>
      <trkpt lat="48.61221" lon="6.40194">
        <ele>260</ele>
        <time>2025-11-10T08:36:43.098Z</time>
      </trkpt>
      <trkpt lat="48.61225" lon="6.40184">
        <ele>260.3</ele>
        <time>2025-11-10T08:36:47.220Z</time>
      </trkpt>
      <trkpt lat="48.61228" lon="6.40176">
        <ele>260.5</ele>
        <time>2025-11-10T08:36:50.403Z</time>
      </trkpt>
      <trkpt lat="48.61225" lon="6.40168">
        <ele>260.9</ele>
        <time>2025-11-10T08:36:53.947Z</time>
      </trkpt>
      <trkpt lat="48.61215" lon="6.40156">
        <ele>261.6</ele>
        <time>2025-11-10T08:37:01.123Z</time>
      </trkpt>
      <trkpt lat="48.61209" lon="6.40148">
        <ele>262.1</ele>
        <time>2025-11-10T08:37:05.735Z</time>
      </trkpt>
      <trkpt lat="48.61199" lon="6.40136">
        <ele>262.9</ele>
        <time>2025-11-10T08:37:13.099Z</time>
      </trkpt>
      <trkpt lat="48.61191" lon="6.40128">
        <ele>263.4</ele>
        <time>2025-11-10T08:37:18.442Z</time>
      </trkpt>
      <trkpt lat="48.61184" lon="6.40119">
        <ele>263.7</ele>
        <time>2025-11-10T08:37:23.247Z</time>
      </trkpt>
      <trkpt lat="48.61178" lon="6.40113">
        <ele>263.9</ele>
        <time>2025-11-10T08:37:26.951Z</time>
      </trkpt>
      <trkpt lat="48.61174" lon="6.40111">
        <ele>264</ele>
        <time>2025-11-10T08:37:29.092Z</time>
      </trkpt>
      <trkpt lat="48.6117" lon="6.40114">
        <ele>263.9</ele>
        <time>2025-11-10T08:37:31.061Z</time>
      </trkpt>
      <trkpt lat="48.61163" lon="6.40121">
        <ele>263.6</ele>
        <time>2025-11-10T08:37:34.618Z</time>
      </trkpt>
      <trkpt lat="48.61161" lon="6.40123">
        <ele>263.5</ele>
        <time>2025-11-10T08:37:35.617Z</time>
      </trkpt>
      <trkpt lat="48.61156" lon="6.40125">
        <ele>263.3</ele>
        <time>2025-11-10T08:37:37.790Z</time>
      </trkpt>
      <trkpt lat="48.6115" lon="6.40124">
        <ele>263.3</ele>
        <time>2025-11-10T08:37:40.639Z</time>
      </trkpt>
      <trkpt lat="48.61145" lon="6.40117">
        <ele>263.6</ele>
        <time>2025-11-10T08:37:44.336Z</time>
      </trkpt>
      <trkpt lat="48.61108" lon="6.40072">
        <ele>268.4</ele>
        <time>2025-11-10T08:38:15.561Z</time>
      </trkpt>
      <trkpt lat="48.61077" lon="6.40034">
        <ele>275</ele>
        <time>2025-11-10T08:38:48.709Z</time>
      </trkpt>
      <trkpt lat="48.61066" lon="6.40023">
        <ele>277.7</ele>
        <time>2025-11-10T08:39:01.458Z</time>
      </trkpt>
      <trkpt lat="48.61044" lon="6.39993">
        <ele>286</ele>
        <time>2025-11-10T08:39:40.359Z</time>
      </trkpt>
      <trkpt lat="48.6102" lon="6.39965">
        <ele>292.6</ele>
        <time>2025-11-10T08:40:11.209Z</time>
      </trkpt>
      <trkpt lat="48.61011" lon="6.39955">
        <ele>294.3</ele>
        <time>2025-11-10T08:40:20.039Z</time>
      </trkpt>
      <trkpt lat="48.61006" lon="6.39951">
        <ele>295.1</ele>
        <time>2025-11-10T08:40:24.337Z</time>
      </trkpt>
      <trkpt lat="48.61001" lon="6.39947">
        <ele>295.8</ele>
        <time>2025-11-10T08:40:28.368Z</time>
      </trkpt>
      <trkpt lat="48.61014" lon="6.39921">
        <ele>295.3</ele>
        <time>2025-11-10T08:40:37.850Z</time>
      </trkpt>
      <trkpt lat="48.61027" lon="6.39902">
        <ele>295.6</ele>
        <time>2025-11-10T08:40:46.835Z</time>
        <extensions>
          <visugpx:TrkExtension xmlns:visugpx="https://www.visugpx.com/editgpx/">
            <visugpx:node>2</visugpx:node>
            </visugpx:TrkExtension>
        </extensions>
      </trkpt>
      <trkpt lat="48.61042" lon="6.39878">
        <ele>296.3</ele>
        <time>2025-11-10T08:40:58.233Z</time>
      </trkpt>
      <trkpt lat="48.6105" lon="6.39866">
        <ele>296.8</ele>
        <time>2025-11-10T08:41:04.353Z</time>
      </trkpt>
      <trkpt lat="48.61054" lon="6.39861">
        <ele>297.1</ele>
        <time>2025-11-10T08:41:07.299Z</time>
      </trkpt>
      <trkpt lat="48.61071" lon="6.39843">
        <ele>296.5</ele>
        <time>2025-11-10T08:41:16.274Z</time>
      </trkpt>
      <trkpt lat="48.61072" lon="6.39842">
        <ele>296.5</ele>
        <time>2025-11-10T08:41:16.840Z</time>
      </trkpt>
      <trkpt lat="48.61075" lon="6.39837">
        <ele>296.5</ele>
        <time>2025-11-10T08:41:18.947Z</time>
      </trkpt>
      <trkpt lat="48.61077" lon="6.39831">
        <ele>296.5</ele>
        <time>2025-11-10T08:41:21.044Z</time>
      </trkpt>
      <trkpt lat="48.6112" lon="6.3974">
        <ele>300.5</ele>
        <time>2025-11-10T08:42:02.511Z</time>
      </trkpt>
      <trkpt lat="48.61154" lon="6.39648">
        <ele>308</ele>
        <time>2025-11-10T08:42:49.403Z</time>
      </trkpt>
      <trkpt lat="48.61159" lon="6.39638">
        <ele>309</ele>
        <time>2025-11-10T08:42:55.244Z</time>
      </trkpt>
      <trkpt lat="48.61157" lon="6.39636">
        <ele>309.1</ele>
        <time>2025-11-10T08:42:56.535Z</time>
      </trkpt>
      <trkpt lat="48.61139" lon="6.39609">
        <ele>310.1</ele>
        <time>2025-11-10T08:43:10.087Z</time>
      </trkpt>
      <trkpt lat="48.61128" lon="6.39591">
        <ele>310.7</ele>
        <time>2025-11-10T08:43:18.683Z</time>
      </trkpt>
      <trkpt lat="48.61115" lon="6.39575">
        <ele>311</ele>
        <time>2025-11-10T08:43:27.047Z</time>
      </trkpt>
      <trkpt lat="48.61109" lon="6.3957">
        <ele>310.9</ele>
        <time>2025-11-10T08:43:30.140Z</time>
      </trkpt>
      <trkpt lat="48.61095" lon="6.39558">
        <ele>310.9</ele>
        <time>2025-11-10T08:43:37.735Z</time>
      </trkpt>
      <trkpt lat="48.61091" lon="6.39554">
        <ele>311</ele>
        <time>2025-11-10T08:43:40.151Z</time>
      </trkpt>
      <trkpt lat="48.61091" lon="6.39554">
        <ele>311</ele>
        <time>2025-11-10T08:43:40.151Z</time>
        <extensions>
          <visugpx:TrkExtension xmlns:visugpx="https://www.visugpx.com/editgpx/">
            <visugpx:node>3</visugpx:node>
            </visugpx:TrkExtension>
        </extensions>
      </trkpt>
      <trkpt lat="48.61015" lon="6.39479">
        <ele>305</ele>
        <time>2025-11-10T08:44:17.629Z</time>
      </trkpt>
      <trkpt lat="48.60979" lon="6.39296">
        <ele>302</ele>
        <time>2025-11-10T08:45:13.071Z</time>
      </trkpt>
      <trkpt lat="48.60849" lon="6.38975">
        <ele>297</ele>
        <time>2025-11-10T08:47:03.589Z</time>
      </trkpt>
      <trkpt lat="48.60821" lon="6.38631">
        <ele>292</ele>
        <time>2025-11-10T08:48:44.824Z</time>
      </trkpt>
      <trkpt lat="48.61025" lon="6.38252">
        <ele>286</ele>
        <time>2025-11-10T08:51:08.963Z</time>
      </trkpt>
      <trkpt lat="48.61193" lon="6.38389">
        <ele>281</ele>
        <time>2025-11-10T08:52:32.180Z</time>
      </trkpt>
      <trkpt lat="48.61166" lon="6.38475">
        <ele>285</ele>
        <time>2025-11-10T08:53:08.598Z</time>
      </trkpt>
      <trkpt lat="48.6121" lon="6.38587">
        <ele>282</ele>
        <time>2025-11-10T08:53:45.205Z</time>
      </trkpt>
      <trkpt lat="48.61251" lon="6.3861">
        <ele>280</ele>
        <time>2025-11-10T08:54:03.265Z</time>
      </trkpt>
      <trkpt lat="48.61488" lon="6.39227">
        <ele>290</ele>
        <time>2025-11-10T08:58:01.164Z</time>
      </trkpt>
      <trkpt lat="48.6168" lon="6.39101">
        <ele>283</ele>
        <time>2025-11-10T08:59:30.474Z</time>
      </trkpt>
      <trkpt lat="48.61681" lon="6.39217">
        <ele>278</ele>
        <time>2025-11-10T09:00:02.149Z</time>
      </trkpt>
      <trkpt lat="48.61767" lon="6.39342">
        <ele>266</ele>
        <time>2025-11-10T09:00:51.407Z</time>
      </trkpt>
      <trkpt lat="48.61746" lon="6.39419">
        <ele>257</ele>
        <time>2025-11-10T09:01:14.149Z</time>
      </trkpt>
      <trkpt lat="48.61922" lon="6.39619">
        <ele>253</ele>
        <time>2025-11-10T09:02:52.460Z</time>
      </trkpt>
      <trkpt lat="48.61866" lon="6.39701">
        <ele>246</ele>
        <time>2025-11-10T09:03:24.649Z</time>
      </trkpt>
      <trkpt lat="48.61888" lon="6.39763">
        <ele>245</ele>
        <time>2025-11-10T09:03:45.218Z</time>
        <extensions>
          <visugpx:TrkExtension xmlns:visugpx="https://www.visugpx.com/editgpx/">
            <visugpx:node>4</visugpx:node>
            </visugpx:TrkExtension>
        </extensions>
      </trkpt>
    </trkseg>
  </trk>
</gpx>